Albion, Michigan
Current Conditions -  °F | °C
As of 3:53 PM on Friday 31 Oct 2014 (Local Time) from KRMY Reporting Station
Light Rain Light Rain  
Wind Chill: 26°   Ceiling: 1500
Heat Index: 35°   Visibility: 10mi
Dew Point: 32°   Wind: 12mph
Humidity: 90%   Direction: 360°N
Pressure: 29.99"   Gusts: 22mph
Location:  42.25°N, 84.75°W
Report Text: KRMY 311953Z AUTO 36010G19KT 10SM -RA OVC015 02/00 A2999 RMK AO2 T00150000
Loading
Personal Weather Stations






























Interactive Weather Map
Tropical Storm Tracking
New forecast layout! Learn more

10-Day Weather Forecast

Advertisements
Track Severe Weather on mobile